Time;durP1;ratioP1;P1;durP2;ratioP2;P2;SDS_P1;SDS_P2;PMS_P1;PMS_P2;Temp;Humidity;BMP_temperature;BMP_pressure;BME280_temperature;BME280_humidity;BME280_pressure;Samples;Min_cycle;Max_cycle;Signal;HPM_P1;HPM_P2
2024/04/17 00:01:52;;;;;;;1.60;0.88;;;11.50;46.20;;;;;;5356520;26;20567;-47
2024/04/17 00:04:37;;;;;;;1.40;0.88;;;11.50;46.30;;;;;;5381914;26;20161;-51
2024/04/17 00:07:22;;;;;;;3.05;1.00;;;11.40;46.20;;;;;;5389176;26;20725;-51
2024/04/17 00:10:06;;;;;;;4.70;1.92;;;11.40;46.30;;;;;;5393183;26;20018;-50
2024/04/17 00:12:51;;;;;;;2.85;0.90;;;11.30;46.20;;;;;;5382556;26;20418;-50
2024/04/17 00:15:36;;;;;;;1.85;0.60;;;11.30;46.30;;;;;;5382013;26;20018;-49
2024/04/17 00:18:21;;;;;;;2.92;0.90;;;11.20;46.20;;;;;;5366093;26;20053;-52
2024/04/17 00:21:06;;;;;;;2.75;0.80;;;11.10;46.10;;;;;;5397318;26;20644;-51
2024/04/17 00:23:51;;;;;;;3.70;1.13;;;11.10;46.10;;;;;;5379538;26;20006;-49
2024/04/17 00:26:35;;;;;;;2.25;0.98;;;11.00;46.00;;;;;;5367199;26;20271;-49
2024/04/17 00:29:20;;;;;;;4.03;1.00;;;11.00;46.10;;;;;;5389809;26;20011;-51
2024/04/17 00:32:06;;;;;;;4.85;1.20;;;10.90;46.00;;;;;;5381054;26;20015;-47
2024/04/17 00:34:50;;;;;;;4.68;1.48;;;10.90;46.10;;;;;;5400467;26;20079;-46
2024/04/17 00:37:35;;;;;;;1.38;0.98;;;10.80;46.00;;;;;;5393927;26;20010;-50
2024/04/17 00:40:19;;;;;;;2.88;0.68;;;10.80;46.10;;;;;;5388954;26;20013;-50
2024/04/17 00:43:04;;;;;;;2.13;0.90;;;10.70;46.00;;;;;;5391758;26;20050;-50
2024/04/17 00:45:50;;;;;;;3.67;1.05;;;10.60;45.90;;;;;;5380475;26;20018;-50
2024/04/17 00:48:36;;;;;;;3.28;0.85;;;10.60;46.00;;;;;;5357047;26;20546;-48
2024/04/17 00:51:20;;;;;;;1.23;0.82;;;10.50;45.90;;;;;;5380997;26;20119;-49
2024/04/17 00:54:07;;;;;;;3.75;1.20;;;10.50;46.00;;;;;;5389947;26;20172;-48
2024/04/17 00:56:52;;;;;;;2.40;1.02;;;10.40;45.90;;;;;;5361033;26;20063;-51
2024/04/17 00:59:37;;;;;;;2.58;0.98;;;10.40;45.90;;;;;;5388854;26;20555;-47
2024/04/17 01:02:22;;;;;;;2.45;0.90;;;10.30;45.90;;;;;;5385605;26;20005;-49
2024/04/17 01:05:06;;;;;;;1.70;1.00;;;10.30;46.00;;;;;;5385573;26;20010;-48
2024/04/17 01:07:52;;;;;;;2.75;0.95;;;10.20;45.80;;;;;;5382965;26;20010;-46
2024/04/17 01:10:36;;;;;;;3.13;0.85;;;10.20;45.90;;;;;;5366525;26;20007;-46
2024/04/17 01:13:21;;;;;;;4.28;1.40;;;10.10;45.80;;;;;;5381636;26;20628;-50
2024/04/17 01:16:06;;;;;;;2.40;1.38;;;10.10;45.90;;;;;;5386896;26;20410;-50
2024/04/17 01:18:51;;;;;;;1.67;0.90;;;10.10;45.90;;;;;;5386496;26;20013;-50
2024/04/17 01:21:36;;;;;;;1.33;0.90;;;10.00;45.80;;;;;;5382017;26;20018;-49
2024/04/17 01:24:21;;;;;;;1.52;0.80;;;10.00;45.90;;;;;;5389873;26;20084;-47
2024/04/17 01:27:06;;;;;;;3.00;1.00;;;10.00;45.90;;;;;;5375291;26;20010;-49
2024/04/17 01:29:51;;;;;;;2.50;0.80;;;9.90;45.80;;;;;;5393640;26;20467;-49
2024/04/17 01:32:35;;;;;;;1.92;0.80;;;9.90;45.90;;;;;;5392943;26;20017;-50
2024/04/17 01:35:20;;;;;;;3.75;1.45;;;9.90;46.00;;;;;;5386208;26;20009;-49
2024/04/17 01:38:04;;;;;;;3.00;1.00;;;9.70;45.70;;;;;;5384427;26;20018;-50
2024/04/17 01:40:49;;;;;;;3.05;0.80;;;9.70;45.80;;;;;;5377862;26;20034;-52
2024/04/17 01:43:34;;;;;;;1.55;0.77;;;9.70;45.80;;;;;;5377998;26;20072;-48
2024/04/17 01:46:18;;;;;;;4.32;1.42;;;9.60;45.70;;;;;;5387872;26;20068;-51
2024/04/17 01:49:03;;;;;;;1.45;0.80;;;9.60;45.80;;;;;;5380339;26;20357;-52
2024/04/17 01:51:48;;;;;;;4.93;0.88;;;9.60;45.80;;;;;;5380207;26;20823;-52
2024/04/17 01:54:32;;;;;;;3.15;1.27;;;9.50;45.70;;;;;;5386368;26;20005;-48
2024/04/17 01:57:18;;;;;;;2.92;1.38;;;9.50;45.80;;;;;;5385911;26;20377;-50
2024/04/17 02:00:02;;;;;;;2.17;0.98;;;9.40;45.70;;;;;;5388120;26;20013;-50
2024/04/17 02:02:53;;;;;;;4.85;1.20;;;9.40;45.80;;;;;;5380003;26;20081;-49
2024/04/17 02:05:38;;;;;;;1.63;0.90;;;9.40;45.80;;;;;;5386499;26;20533;-50
2024/04/17 02:08:22;;;;;;;2.33;0.80;;;9.40;45.90;;;;;;5388997;26;20076;-50
2024/04/17 02:11:07;;;;;;;2.97;0.98;;;9.40;45.90;;;;;;5373648;26;20018;-51
2024/04/17 02:13:52;;;;;;;1.63;0.90;;;9.30;45.80;;;;;;5380714;26;20046;-51
2024/04/17 02:16:37;;;;;;;4.07;0.98;;;9.30;45.80;;;;;;5380194;26;20413;-50
2024/04/17 02:19:21;;;;;;;2.97;0.80;;;9.40;46.00;;;;;;5385005;26;20055;-51
2024/04/17 02:22:06;;;;;;;1.27;0.70;;;9.30;45.80;;;;;;5373919;26;20354;-49
2024/04/17 02:24:51;;;;;;;1.98;0.68;;;9.30;45.80;;;;;;5384142;26;20552;-56
2024/04/17 02:27:35;;;;;;;3.10;0.90;;;9.30;45.80;;;;;;5383016;26;20015;-51
2024/04/17 02:30:20;;;;;;;3.55;0.90;;;9.30;45.80;;;;;;5387104;26;20022;-52
2024/04/17 02:33:04;;;;;;;3.88;0.98;;;9.30;45.90;;;;;;5391830;26;20022;-50
2024/04/17 02:35:50;;;;;;;1.85;0.93;;;9.30;45.90;;;;;;5379841;26;20090;-49
2024/04/17 02:38:34;;;;;;;1.60;0.60;;;9.30;45.90;;;;;;5377395;26;20014;-50
2024/04/17 02:41:19;;;;;;;3.45;1.08;;;9.30;45.90;;;;;;5389248;26;20511;-47
2024/04/17 02:44:05;;;;;;;4.35;1.00;;;9.30;46.00;;;;;;5377008;26;20556;-52
2024/04/17 02:46:50;;;;;;;3.85;1.35;;;9.30;46.00;;;;;;5396861;26;20348;-50
2024/04/17 02:49:35;;;;;;;1.70;0.80;;;9.30;46.00;;;;;;5385555;26;20129;-50
2024/04/17 02:52:19;;;;;;;2.40;1.00;;;9.30;46.10;;;;;;5380990;26;20018;-49
2024/04/17 02:55:04;;;;;;;3.25;1.10;;;9.30;46.10;;;;;;5379620;26;20017;-51
2024/04/17 02:57:49;;;;;;;1.65;0.88;;;9.40;46.30;;;;;;5381385;26;20006;-50
2024/04/17 03:00:33;;;;;;;3.40;0.85;;;9.30;46.10;;;;;;5374451;26;20050;-50
2024/04/17 03:03:18;;;;;;;2.97;0.80;;;9.30;46.20;;;;;;5388991;26;20080;-48
2024/04/17 03:06:03;;;;;;;2.17;0.98;;;9.40;46.40;;;;;;5399102;26;20083;-52
2024/04/17 03:08:48;;;;;;;7.05;1.45;;;9.40;46.90;;;;;;5383765;26;20054;-50
2024/04/17 03:11:33;;;;;;;2.50;1.15;;;9.50;46.50;;;;;;5371996;26;20022;-52
2024/04/17 03:14:17;;;;;;;1.45;0.70;;;9.50;46.50;;;;;;5366554;26;20042;-50
2024/04/17 03:17:02;;;;;;;2.80;0.98;;;9.50;46.50;;;;;;5349210;26;20011;-51
2024/04/17 03:19:46;;;;;;;3.25;0.90;;;9.60;46.70;;;;;;5351710;26;20055;-51
2024/04/17 03:22:32;;;;;;;3.58;0.90;;;9.60;46.60;;;;;;5353811;26;20012;-54
2024/04/17 03:25:16;;;;;;;1.35;0.68;;;9.60;46.60;;;;;;5350192;26;20015;-50
2024/04/17 03:28:01;;;;;;;2.47;0.82;;;9.70;46.90;;;;;;5353178;26;20074;-51
2024/04/17 03:30:46;;;;;;;3.60;1.00;;;9.70;46.90;;;;;;5270646;26;20076;-49
2024/04/17 03:33:31;;;;;;;2.35;1.60;;;9.70;46.80;;;;;;5338653;26;20018;-50
2024/04/17 03:36:16;;;;;;;2.60;0.63;;;9.70;46.80;;;;;;5329679;26;20019;-53
2024/04/17 03:39:00;;;;;;;2.17;0.73;;;9.70;46.80;;;;;;5360050;26;20505;-50
2024/04/17 03:41:46;;;;;;;2.17;0.82;;;9.80;47.00;;;;;;5352524;26;20524;-53
2024/04/17 03:44:31;;;;;;;3.05;1.13;;;9.80;47.00;;;;;;5349940;26;20082;-51
2024/04/17 03:47:15;;;;;;;1.52;0.70;;;9.80;47.00;;;;;;5358875;26;20012;-53
2024/04/17 03:50:04;;;;;;;2.10;0.82;;;9.80;47.10;;;;;;5364654;26;20019;-50
2024/04/17 03:52:49;;;;;;;1.38;0.60;;;9.80;47.10;;;;;;5355020;26;20081;-49
2024/04/17 03:55:34;;;;;;;3.63;0.82;;;9.80;47.10;;;;;;5367862;26;20011;-50
2024/04/17 03:58:20;;;;;;;4.90;1.42;;;9.80;47.10;;;;;;5357801;26;20071;-51
2024/04/17 04:01:04;;;;;;;1.15;0.65;;;9.80;47.20;;;;;;5367781;26;20027;-49
2024/04/17 04:03:49;;;;;;;2.15;0.70;;;9.80;47.20;;;;;;5349710;26;20034;-52
2024/04/17 04:06:34;;;;;;;1.83;1.08;;;9.80;47.20;;;;;;5362213;26;20010;-51
2024/04/17 04:09:19;;;;;;;2.13;0.80;;;9.70;47.10;;;;;;5332687;26;20019;-47
2024/04/17 04:12:05;;;;;;;2.22;0.50;;;9.70;47.20;;;;;;5355361;26;20011;-49
2024/04/17 04:14:49;;;;;;;2.05;0.90;;;9.70;47.20;;;;;;5380107;26;20018;-52
2024/04/17 04:17:36;;;;;;;2.13;0.80;;;9.70;47.20;;;;;;5365191;26;20056;-51
2024/04/17 04:20:20;;;;;;;2.40;1.00;;;9.70;47.30;;;;;;5384977;26;20027;-50
2024/04/17 04:23:05;;;;;;;3.90;1.40;;;9.70;47.30;;;;;;5388840;26;20051;-50
2024/04/17 04:25:50;;;;;;;2.22;0.75;;;9.70;47.40;;;;;;5386517;26;20013;-54
2024/04/17 04:28:35;;;;;;;1.05;0.70;;;9.60;47.20;;;;;;5385720;26;20487;-52
2024/04/17 04:31:20;;;;;;;2.90;1.02;;;9.70;47.40;;;;;;5389096;26;20589;-49
2024/04/17 04:34:05;;;;;;;2.92;0.70;;;9.60;47.20;;;;;;5388914;26;20015;-53
2024/04/17 04:36:49;;;;;;;1.98;0.60;;;9.60;47.30;;;;;;5398206;26;20015;-49
2024/04/17 04:39:34;;;;;;;3.13;0.80;;;9.60;47.30;;;;;;5389940;26;20072;-50
2024/04/17 04:42:19;;;;;;;1.20;0.60;;;9.60;47.40;;;;;;5368779;26;20465;-51
2024/04/17 04:45:03;;;;;;;1.08;0.80;;;9.60;47.40;;;;;;5395816;26;20483;-49
2024/04/17 04:47:48;;;;;;;0.77;0.55;;;9.60;47.40;;;;;;5391390;26;20014;-51
2024/04/17 04:50:33;;;;;;;2.13;1.00;;;9.60;47.40;;;;;;5387460;26;20084;-51
2024/04/17 04:53:18;;;;;;;0.90;0.63;;;9.60;47.50;;;;;;5395587;26;20536;-50
2024/04/17 04:56:04;;;;;;;1.25;1.15;;;9.60;47.50;;;;;;5389775;26;20360;-52
2024/04/17 04:58:49;;;;;;;2.70;0.50;;;9.60;47.50;;;;;;5385336;26;20015;-53
2024/04/17 05:01:34;;;;;;;2.78;0.95;;;9.60;47.50;;;;;;5385351;26;20068;-51
2024/04/17 05:04:19;;;;;;;1.20;0.77;;;9.60;47.50;;;;;;5382725;26;20018;-50
2024/04/17 05:07:04;;;;;;;1.55;0.68;;;9.60;47.50;;;;;;5356493;26;20011;-52
2024/04/17 05:09:49;;;;;;;1.02;0.50;;;9.60;47.50;;;;;;5386421;26;20010;-52
2024/04/17 05:12:34;;;;;;;3.15;0.77;;;9.60;47.50;;;;;;5402461;26;20100;-52
2024/04/17 05:15:18;;;;;;;2.88;0.65;;;9.60;47.60;;;;;;5386426;26;20014;-55
2024/04/17 05:18:03;;;;;;;1.30;0.70;;;9.60;47.60;;;;;;5367248;26;20010;-53
2024/04/17 05:20:47;;;;;;;2.05;0.90;;;9.60;47.60;;;;;;5388783;26;20023;-48
2024/04/17 05:23:33;;;;;;;0.90;0.70;;;9.60;47.60;;;;;;5384598;26;20018;-51
2024/04/17 05:26:18;;;;;;;2.80;1.00;;;9.50;47.50;;;;;;5385609;26;20005;-49
2024/04/17 05:29:03;;;;;;;1.55;0.70;;;9.50;47.50;;;;;;5364593;26;20038;-50
2024/04/17 05:31:48;;;;;;;1.98;1.38;;;9.50;47.60;;;;;;5369483;26;20054;-52
2024/04/17 05:34:33;;;;;;;2.03;0.90;;;9.50;47.60;;;;;;5391064;26;20276;-54
2024/04/17 05:37:18;;;;;;;1.92;0.68;;;9.50;47.60;;;;;;5379255;26;20475;-55
2024/04/17 05:40:03;;;;;;;1.90;0.80;;;9.40;47.50;;;;;;5353704;26;20501;-53
2024/04/17 05:42:47;;;;;;;2.85;0.90;;;9.40;47.50;;;;;;5389229;26;20087;-52
2024/04/17 05:45:32;;;;;;;2.92;1.00;;;9.40;47.60;;;;;;5390522;26;20366;-52
2024/04/17 05:48:17;;;;;;;4.75;1.45;;;9.50;47.80;;;;;;5379541;26;20102;-52
2024/04/17 05:51:01;;;;;;;3.03;0.75;;;9.50;47.80;;;;;;5390018;26;20421;-51
2024/04/17 05:53:56;;;;;;;1.98;1.00;;;9.50;47.80;;;;;;5388933;26;20010;-49
2024/04/17 05:56:41;;;;;;;1.15;0.70;;;9.50;47.70;;;;;;5407833;26;20010;-49
2024/04/17 05:59:25;;;;;;;4.45;1.48;;;9.50;47.80;;;;;;5388583;26;20057;-55
2024/04/17 06:02:10;;;;;;;4.25;1.10;;;9.60;48.80;;;;;;5383039;26;20013;-50
2024/04/17 06:04:58;;;;;;;1.67;0.77;;;9.80;50.20;;;;;;5396016;26;20085;-48
2024/04/17 06:07:43;;;;;;;2.13;1.00;;;10.10;51.30;;;;;;5385752;26;20108;-52
2024/04/17 06:10:27;;;;;;;3.03;0.90;;;10.30;51.90;;;;;;5386970;26;20018;-48
2024/04/17 06:13:12;;;;;;;3.42;1.20;;;10.60;52.70;;;;;;5385724;26;20081;-51
2024/04/17 06:15:57;;;;;;;2.60;1.00;;;10.90;53.40;;;;;;5382225;26;20076;-50
2024/04/17 06:18:41;;;;;;;2.33;1.02;;;11.20;53.80;;;;;;5381607;26;20015;-52
2024/04/17 06:21:28;;;;;;;4.05;2.80;;;11.40;54.00;;;;;;5387570;26;20102;-48
2024/04/17 06:24:12;;;;;;;4.97;1.80;;;11.50;54.10;;;;;;5396960;26;20483;-48
2024/04/17 06:26:57;;;;;;;5.78;2.92;;;11.70;54.30;;;;;;5388152;26;20018;-48
2024/04/17 06:29:43;;;;;;;10.43;2.90;;;11.80;54.30;;;;;;5380943;26;20351;-52
2024/04/17 06:32:27;;;;;;;6.05;2.42;;;11.90;54.70;;;;;;5382376;26;20071;-50
2024/04/17 06:35:12;;;;;;;5.03;3.25;;;12.10;55.00;;;;;;5387371;26;20077;-52
2024/04/17 06:37:57;;;;;;;7.50;3.08;;;12.30;55.10;;;;;;5397636;26;20521;-51
2024/04/17 06:40:41;;;;;;;5.43;3.95;;;12.50;55.10;;;;;;5372468;26;20146;-51
2024/04/17 06:43:26;;;;;;;6.88;4.90;;;12.80;55.10;;;;;;5387083;26;20089;-51
2024/04/17 06:46:11;;;;;;;8.52;4.95;;;13.10;55.00;;;;;;5402064;26;20010;-61
2024/04/17 06:48:56;;;;;;;9.15;4.55;;;13.30;54.60;;;;;;5390202;26;20015;-52
2024/04/17 06:51:41;;;;;;;7.97;5.18;;;13.60;54.50;;;;;;5365133;26;20481;-50
2024/04/17 06:54:26;;;;;;;7.45;4.38;;;13.90;54.20;;;;;;5387262;26;20763;-51
2024/04/17 06:57:11;;;;;;;5.30;4.10;;;14.20;53.90;;;;;;5397647;26;20687;-51
2024/04/17 06:59:56;;;;;;;8.82;4.85;;;14.40;53.50;;;;;;5392785;26;20007;-48
2024/04/17 07:02:40;;;;;;;6.53;4.10;;;14.40;53.20;;;;;;5388272;26;20055;-51
2024/04/17 07:05:25;;;;;;;7.53;4.43;;;14.40;53.00;;;;;;5352769;26;20010;-50
2024/04/17 07:08:11;;;;;;;6.78;3.85;;;14.40;53.00;;;;;;5395791;26;20619;-53
2024/04/17 07:10:55;;;;;;;6.55;3.72;;;14.40;53.00;;;;;;5328656;26;20015;-55
2024/04/17 07:13:40;;;;;;;9.10;3.80;;;14.30;52.80;;;;;;5364898;26;20085;-57
2024/04/17 07:16:25;;;;;;;6.53;3.88;;;14.30;52.80;;;;;;5388623;26;20022;-52
2024/04/17 07:19:10;;;;;;;4.65;3.80;;;14.30;52.70;;;;;;5402988;26;20018;-52
2024/04/17 07:21:56;;;;;;;5.70;3.58;;;14.30;52.50;;;;;;5368732;26;20053;-51
2024/04/17 07:24:41;;;;;;;5.07;2.80;;;14.40;52.50;;;;;;5397166;26;20018;-51
2024/04/17 07:27:26;;;;;;;8.60;3.05;;;14.40;52.30;;;;;;5365307;26;20187;-50
2024/04/17 07:30:11;;;;;;;3.58;2.58;;;14.60;52.20;;;;;;5389692;26;20078;-52
2024/04/17 07:32:56;;;;;;;4.18;2.50;;;14.70;52.00;;;;;;5373066;26;20486;-49
2024/04/17 07:35:42;;;;;;;4.80;2.20;;;14.70;51.60;;;;;;5386557;26;20018;-51
2024/04/17 07:38:26;;;;;;;2.90;2.28;;;14.70;51.40;;;;;;5388386;26;20234;-51
2024/04/17 07:41:12;;;;;;;3.22;2.00;;;14.80;51.50;;;;;;5382496;26;20022;-51
2024/04/17 07:43:57;;;;;;;3.78;2.45;;;14.80;51.80;;;;;;5371773;26;20011;-52
2024/04/17 07:46:42;;;;;;;6.20;2.45;;;14.90;51.10;;;;;;5387080;26;20014;-50
2024/04/17 07:49:26;;;;;;;2.40;2.20;;;14.90;51.00;;;;;;5381687;26;20068;-52
2024/04/17 07:52:12;;;;;;;4.72;2.42;;;14.90;50.80;;;;;;5357372;26;20015;-50
2024/04/17 07:54:57;;;;;;;5.72;2.40;;;14.90;50.60;;;;;;5389028;26;20010;-51
2024/04/17 07:57:42;;;;;;;5.18;2.55;;;15.00;50.50;;;;;;5387695;26;20069;-53
2024/04/17 08:00:26;;;;;;;3.83;1.77;;;15.00;50.30;;;;;;5396580;26;20014;-50
2024/04/17 08:03:11;;;;;;;3.35;1.77;;;15.00;50.70;;;;;;5390689;26;20507;-52
2024/04/17 08:05:56;;;;;;;5.20;2.00;;;15.00;50.00;;;;;;5389630;26;20006;-49
2024/04/17 08:08:41;;;;;;;2.20;1.55;;;15.10;50.10;;;;;;5358495;26;20018;-52
2024/04/17 08:11:28;;;;;;;3.08;1.60;;;15.00;49.80;;;;;;5382138;26;20259;-51
2024/04/17 08:14:13;;;;;;;4.20;1.92;;;15.00;49.80;;;;;;5392590;26;20472;-55
2024/04/17 08:16:58;;;;;;;3.85;1.80;;;15.00;49.70;;;;;;5388512;26;20567;-49
2024/04/17 08:19:42;;;;;;;4.22;1.70;;;15.10;49.80;;;;;;5399818;26;20478;-53
2024/04/17 08:22:27;;;;;;;3.90;1.88;;;15.10;49.60;;;;;;5362837;26;20072;-51
2024/04/17 08:25:12;;;;;;;2.70;1.20;;;15.20;49.70;;;;;;5371395;26;20443;-49
2024/04/17 08:27:57;;;;;;;2.35;1.33;;;15.20;49.60;;;;;;5392486;26;20061;-53
2024/04/17 08:30:42;;;;;;;3.47;1.38;;;15.30;49.60;;;;;;5384633;26;20036;-51
2024/04/17 08:33:26;;;;;;;2.90;1.15;;;15.30;49.40;;;;;;5387560;26;20648;-52
2024/04/17 08:36:11;;;;;;;3.15;1.33;;;15.40;49.30;;;;;;5376220;26;20022;-49
2024/04/17 08:38:56;;;;;;;3.45;1.35;;;15.50;49.30;;;;;;5380911;26;20138;-55
2024/04/17 08:41:48;;;;;;;4.13;1.20;;;15.60;49.20;;;;;;5374713;26;20465;-54
2024/04/17 08:44:41;;;;;;;2.47;1.20;;;15.70;49.20;;;;;;5395981;26;20018;-51
2024/04/17 08:47:27;;;;;;;2.63;1.30;;;15.90;49.20;;;;;;5380152;26;20377;-50
2024/04/17 08:50:15;;;;;;;2.58;1.20;;;16.00;49.20;;;;;;5389686;26;20059;-51
2024/04/17 08:53:02;;;;;;;2.78;1.33;;;16.00;49.00;;;;;;5396929;26;20010;-56
2024/04/17 08:55:47;;;;;;;1.38;0.85;;;16.10;49.00;;;;;;5377741;26;20609;-51
2024/04/17 08:58:32;;;;;;;2.47;1.33;;;16.20;49.00;;;;;;5391678;26;20429;-51
2024/04/17 09:01:19;;;;;;;2.17;1.13;;;16.30;48.90;;;;;;5368103;26;20330;-48
2024/04/17 09:04:06;;;;;;;3.58;1.17;;;16.40;48.80;;;;;;5381495;26;20010;-53
2024/04/17 09:06:52;;;;;;;2.55;0.98;;;16.50;48.80;;;;;;5385290;26;20018;-50
2024/04/17 09:09:41;;;;;;;1.98;1.15;;;16.50;48.60;;;;;;5387901;26;20035;-49
2024/04/17 09:12:26;;;;;;;4.88;1.90;;;16.60;48.60;;;;;;5359875;26;20019;-50
2024/04/17 09:15:15;;;;;;;4.22;1.50;;;16.70;48.60;;;;;;5383321;26;20622;-51
2024/04/17 09:18:00;;;;;;;3.65;1.42;;;16.90;48.70;;;;;;5383226;26;20018;-54
2024/04/17 09:20:44;;;;;;;3.67;1.50;;;17.00;48.60;;;;;;5364775;26;20062;-55
2024/04/17 09:23:29;;;;;;;3.28;1.10;;;17.10;48.60;;;;;;5384692;26;20455;-48
2024/04/17 09:26:20;;;;;;;2.75;1.40;;;17.20;48.60;;;;;;5384464;26;20011;-50
2024/04/17 09:29:05;;;;;;;3.28;1.33;;;17.40;48.70;;;;;;5372181;26;20341;-49
2024/04/17 09:31:49;;;;;;;2.03;1.10;;;17.50;48.60;;;;;;5371459;26;20527;-51
2024/04/17 09:34:34;;;;;;;1.50;0.75;;;17.60;48.50;;;;;;5385472;26;20085;-52
2024/04/17 09:37:18;;;;;;;2.08;1.33;;;17.70;48.50;;;;;;5381524;26;20089;-51
2024/04/17 09:40:08;;;;;;;2.45;1.35;;;17.80;48.50;;;;;;5372441;26;20409;-52
2024/04/17 09:42:54;;;;;;;1.52;1.10;;;17.80;48.30;;;;;;5383334;26;20074;-52
2024/04/17 09:45:41;;;;;;;2.03;0.90;;;17.90;48.40;;;;;;5382151;26;20765;-51
2024/04/17 09:48:30;;;;;;;2.33;1.60;;;18.00;48.40;;;;;;5384513;26;20076;-52
2024/04/17 09:51:20;;;;;;;1.90;1.10;;;18.10;48.50;;;;;;5383760;26;20438;-53
2024/04/17 09:54:12;;;;;;;2.05;0.80;;;18.10;48.30;;;;;;5375134;26;20080;-49
2024/04/17 09:56:57;;;;;;;2.05;1.08;;;18.20;48.20;;;;;;5374353;26;20452;-50
2024/04/17 09:59:42;;;;;;;1.80;1.48;;;18.20;48.00;;;;;;5363604;26;20017;-53
2024/04/17 10:02:29;;;;;;;1.77;1.25;;;18.20;47.90;;;;;;5389899;26;20076;-52
2024/04/17 10:05:16;;;;;;;2.20;1.10;;;18.30;47.80;;;;;;5381448;26;20192;-52
2024/04/17 10:08:01;;;;;;;1.67;1.17;;;18.30;47.70;;;;;;5372607;26;20104;-50
2024/04/17 10:10:46;;;;;;;2.08;1.40;;;18.30;47.60;;;;;;5368316;26;20010;-49
2024/04/17 10:13:32;;;;;;;1.17;1.02;;;18.30;47.70;;;;;;5371149;26;20015;-53
2024/04/17 10:16:17;;;;;;;2.40;1.52;;;18.20;47.50;;;;;;5345352;26;20047;-52
2024/04/17 10:19:03;;;;;;;2.63;1.23;;;18.20;47.40;;;;;;5338439;26;20016;-50
2024/04/17 10:21:48;;;;;;;2.85;1.80;;;18.10;47.20;;;;;;5346719;26;20494;-54
2024/04/17 10:24:33;;;;;;;2.05;1.63;;;18.20;47.40;;;;;;5318441;26;20015;-51
2024/04/17 10:27:21;;;;;;;3.15;2.22;;;18.30;47.40;;;;;;5341157;26;20110;-49
2024/04/17 10:30:09;;;;;;;2.50;2.22;;;18.50;47.30;;;;;;5342329;26;20073;-52
2024/04/17 10:32:54;;;;;;;3.40;2.17;;;18.70;47.30;;;;;;5349734;26;20059;-50
2024/04/17 10:35:42;;;;;;;4.07;2.45;;;18.90;47.40;;;;;;5344918;26;20413;-52
2024/04/17 10:38:29;;;;;;;2.10;1.90;;;19.00;47.20;;;;;;5346483;26;20065;-51
2024/04/17 10:41:13;;;;;;;3.22;1.80;;;19.10;47.10;;;;;;5349717;26;20486;-50
2024/04/17 10:43:58;;;;;;;3.83;1.52;;;19.20;47.00;;;;;;5321656;26;20655;-50
2024/04/17 10:46:43;;;;;;;2.63;2.35;;;19.20;46.90;;;;;;5335796;26;20527;-57
2024/04/17 10:49:28;;;;;;;2.33;1.40;;;19.20;46.70;;;;;;5341869;26;20026;-55
2024/04/17 10:52:14;;;;;;;2.85;1.60;;;19.20;46.80;;;;;;5346887;26;20152;-52
2024/04/17 10:55:00;;;;;;;2.42;1.73;;;19.20;46.80;;;;;;5352604;26;20121;-50
2024/04/17 10:57:45;;;;;;;2.13;1.30;;;19.20;46.70;;;;;;5344448;26;20512;-50
2024/04/17 11:00:30;;;;;;;1.85;1.20;;;19.30;46.80;;;;;;5345826;26;20511;-51
2024/04/17 11:03:16;;;;;;;2.92;1.90;;;19.40;46.80;;;;;;5347840;26;20619;-51
2024/04/17 11:06:00;;;;;;;1.30;1.02;;;19.50;46.70;;;;;;5336469;26;20461;-52
2024/04/17 11:08:47;;;;;;;1.27;1.10;;;19.60;46.80;;;;;;5319214;26;20072;-53
2024/04/17 11:11:31;;;;;;;2.15;1.63;;;19.60;46.60;;;;;;5346898;26;20019;-54
2024/04/17 11:14:16;;;;;;;2.35;1.95;;;19.70;46.70;;;;;;5361269;26;20049;-52
2024/04/17 11:17:01;;;;;;;1.92;1.20;;;19.80;46.70;;;;;;5372614;26;20301;-47
2024/04/17 11:19:46;;;;;;;2.58;1.58;;;20.00;46.90;;;;;;5384382;26;20469;-53
2024/04/17 11:22:34;;;;;;;1.73;1.17;;;20.10;46.90;;;;;;5382562;26;20135;-52
2024/04/17 11:25:19;;;;;;;1.85;1.20;;;20.30;47.00;;;;;;5385939;26;20010;-51
2024/04/17 11:28:03;;;;;;;1.60;1.17;;;20.40;46.90;;;;;;5385313;26;20559;-49
2024/04/17 11:30:48;;;;;;;1.27;1.00;;;20.60;47.00;;;;;;5378037;26;20529;-52
2024/04/17 11:33:33;;;;;;;1.10;0.75;;;20.70;47.00;;;;;;5386025;26;20287;-54
2024/04/17 11:36:18;;;;;;;1.15;0.93;;;20.80;47.10;;;;;;5386865;26;20022;-53
2024/04/17 11:39:02;;;;;;;2.80;1.00;;;21.00;47.30;;;;;;5379486;26;20014;-52
2024/04/17 11:41:51;;;;;;;1.33;1.00;;;21.10;47.20;;;;;;5386863;26;20011;-54
2024/04/17 11:44:41;;;;;;;2.03;0.95;;;21.20;47.20;;;;;;5384098;26;20470;-56
2024/04/17 11:47:25;;;;;;;1.85;0.90;;;21.20;47.00;;;;;;5386711;26;20591;-52
2024/04/17 11:50:11;;;;;;;1.25;0.85;;;21.30;47.10;;;;;;5373940;26;20010;-49
2024/04/17 11:52:55;;;;;;;1.58;1.00;;;21.30;47.10;;;;;;5383599;26;20065;-54
2024/04/17 11:55:40;;;;;;;1.20;0.80;;;21.40;47.20;;;;;;5389235;26;20080;-53
2024/04/17 11:58:24;;;;;;;1.33;0.90;;;21.40;47.20;;;;;;5383465;26;20089;-49
2024/04/17 12:01:09;;;;;;;1.13;0.93;;;21.50;47.20;;;;;;5386870;26;20011;-53
2024/04/17 12:03:54;;;;;;;1.27;0.90;;;21.50;47.00;;;;;;5374239;26;20014;-54
2024/04/17 12:06:39;;;;;;;0.73;0.70;;;21.60;47.20;;;;;;5383052;26;20042;-50
2024/04/17 12:09:23;;;;;;;2.00;1.35;;;21.70;47.20;;;;;;5380955;26;20671;-55
2024/04/17 12:12:08;;;;;;;2.40;1.02;;;21.80;47.30;;;;;;5386174;26;20072;-55
2024/04/17 12:14:54;;;;;;;1.25;1.00;;;21.90;47.40;;;;;;5382098;26;20010;-51
2024/04/17 12:17:39;;;;;;;1.20;0.90;;;21.90;47.30;;;;;;5351874;26;20016;-50
2024/04/17 12:20:23;;;;;;;1.45;0.98;;;21.90;47.20;;;;;;5354522;26;20653;-51
2024/04/17 12:23:09;;;;;;;1.42;1.20;;;21.80;47.10;;;;;;5354932;26;20433;-51
2024/04/17 12:28:56;;;;;;;3.28;1.73;;;21.70;47.00;;;;;;5343810;26;20011;-53
2024/04/17 12:31:41;;;;;;;1.33;1.10;;;21.70;47.00;;;;;;5379452;26;20507;-52
2024/04/17 12:34:26;;;;;;;1.08;0.80;;;21.70;46.90;;;;;;5368571;26;20405;-56
2024/04/17 12:37:15;;;;;;;0.68;0.68;;;21.70;46.80;;;;;;5325207;26;20063;-53
2024/04/17 12:40:00;;;;;;;1.00;0.95;;;21.80;46.80;;;;;;5323415;26;20364;-53
2024/04/17 12:42:47;;;;;;;0.90;0.70;;;21.90;47.00;;;;;;5364884;26;20011;-51
2024/04/17 12:45:32;;;;;;;1.55;1.23;;;21.90;46.90;;;;;;5380719;26;20076;-53
2024/04/17 12:48:16;;;;;;;0.93;0.85;;;21.90;46.80;;;;;;5306562;26;20023;-51
2024/04/17 12:51:01;;;;;;;1.45;0.63;;;21.90;46.70;;;;;;5353947;26;20535;-47
2024/04/17 12:53:55;;;;;;;1.40;0.70;;;22.00;46.80;;;;;;5343619;26;20011;-53
2024/04/17 12:56:40;;;;;;;0.77;0.60;;;21.90;46.50;;;;;;5353801;26;20019;-55
2024/04/17 12:59:25;;;;;;;0.65;0.57;;;21.90;46.60;;;;;;5375664;26;20025;-52
2024/04/17 13:02:10;;;;;;;0.95;0.65;;;21.90;46.60;;;;;;5351490;26;20485;-51
2024/04/17 13:04:55;;;;;;;1.88;1.05;;;22.00;46.80;;;;;;5368700;26;20074;-52
2024/04/17 13:07:40;;;;;;;1.23;0.60;;;21.90;46.60;;;;;;5352489;26;20091;-48
2024/04/17 13:10:24;;;;;;;0.98;0.82;;;21.90;46.50;;;;;;5371891;26;20461;-48
2024/04/17 13:13:09;;;;;;;1.15;0.40;;;21.90;46.40;;;;;;5320103;26;20074;-52
2024/04/17 13:16:03;;;;;;;1.10;0.88;;;22.00;47.20;;;;;;5340726;26;20068;-50
2024/04/17 13:18:48;;;;;;;1.48;1.30;;;22.00;46.60;;;;;;5349472;26;20866;-50
2024/04/17 13:21:36;;;;;;;2.20;2.00;;;22.10;46.70;;;;;;5349599;26;20068;-48
2024/04/17 13:24:20;;;;;;;2.85;2.22;;;22.20;46.70;;;;;;5348408;26;20669;-52
2024/04/17 13:27:05;;;;;;;2.85;2.60;;;22.30;46.70;;;;;;5348752;26;20410;-51
2024/04/17 13:29:49;;;;;;;2.70;2.50;;;22.30;46.60;;;;;;5335370;26;20015;-52
2024/04/17 13:32:35;;;;;;;3.30;2.97;;;22.40;46.70;;;;;;5349592;26;20094;-51
2024/04/17 13:35:20;;;;;;;4.22;3.25;;;22.50;46.60;;;;;;5327032;26;20051;-52
2024/04/17 13:38:05;;;;;;;4.55;3.65;;;22.60;46.60;;;;;;5341175;26;20019;-59
2024/04/17 13:41:04;;;;;;;3.40;3.10;;;22.70;46.70;;;;;;5336250;26;20027;-50
2024/04/17 13:43:49;;;;;;;3.22;2.92;;;22.90;46.70;;;;;;5369349;26;20006;-47
2024/04/17 13:46:33;;;;;;;4.03;3.63;;;23.10;46.80;;;;;;5362208;26;20023;-50
2024/04/17 13:49:18;;;;;;;3.58;3.28;;;23.30;46.80;;;;;;5361959;26;20456;-50
2024/04/17 13:52:03;;;;;;;3.22;2.92;;;23.50;46.80;;;;;;5347529;26;20020;-51
2024/04/17 13:54:48;;;;;;;4.05;3.65;;;23.60;46.70;;;;;;5346072;26;20022;-49
2024/04/17 13:57:35;;;;;;;3.38;3.08;;;23.60;46.70;;;;;;5348073;26;20107;-48
2024/04/17 14:00:20;;;;;;;3.58;3.28;;;23.40;46.30;;;;;;5349739;26;20374;-51
2024/04/17 14:03:05;;;;;;;3.25;2.95;;;23.30;46.20;;;;;;5349292;26;20014;-50
2024/04/17 14:05:50;;;;;;;2.92;2.63;;;23.10;45.90;;;;;;5351839;26;20010;-48
2024/04/17 14:08:35;;;;;;;3.17;2.88;;;22.80;45.60;;;;;;5363950;26;20086;-50
2024/04/17 14:11:20;;;;;;;2.30;1.98;;;22.60;45.50;;;;;;5342845;26;20102;-48
2024/04/17 14:14:04;;;;;;;3.63;2.78;;;22.40;45.30;;;;;;5341397;26;20015;-55
2024/04/17 14:16:50;;;;;;;3.25;2.65;;;22.20;45.20;;;;;;5379305;26;20073;-48
2024/04/17 14:19:35;;;;;;;2.42;1.92;;;22.10;45.20;;;;;;5361951;26;20497;-53
2024/04/17 14:22:20;;;;;;;2.55;2.35;;;21.90;45.00;;;;;;5376671;26;20691;-52
2024/04/17 14:25:05;;;;;;;2.75;2.10;;;21.70;44.90;;;;;;5384594;26;20043;-49
2024/04/17 14:27:50;;;;;;;3.42;2.63;;;21.50;44.80;;;;;;5383621;26;20408;-47